Time;durP1;ratioP1;P1;durP2;ratioP2;P2;SDS_P1;SDS_P2;PMS_P1;PMS_P2;Temp;Humidity;BMP_temperature;BMP_pressure;BME280_temperature;BME280_humidity;BME280_pressure;Samples;Min_cycle;Max_cycle;Signal;HPM_P1;HPM_P2
2023/01/14 00:01:22;;;;;;;2.75;2.35;;;8.80;99.90;;;;;;10161292;28;20044;-66
2023/01/14 00:06:17;;;;;;;6.25;1.52;;;8.80;99.90;;;;;;10157520;28;20085;-66
2023/01/14 00:11:09;;;;;;;5.05;1.90;;;8.80;99.90;;;;;;10164161;28;20390;-66
2023/01/14 00:16:00;;;;;;;4.53;2.08;;;8.70;99.90;;;;;;10170135;28;20035;-66
2023/01/14 00:21:06;;;;;;;2.38;1.13;;;8.80;99.90;;;;;;10165164;28;20035;-67
2023/01/14 00:26:12;;;;;;;9.18;2.15;;;8.70;99.90;;;;;;10179145;28;20047;-66
2023/01/14 00:31:11;;;;;;;3.42;1.00;;;8.60;99.90;;;;;;10168038;28;20201;-66
2023/01/14 00:36:02;;;;;;;3.22;0.85;;;8.60;99.90;;;;;;10165683;28;20032;-68
2023/01/14 00:41:01;;;;;;;2.05;1.15;;;8.40;99.90;;;;;;10181871;28;20110;-67
2023/01/14 00:45:51;;;;;;;2.72;0.88;;;8.20;99.90;;;;;;10172448;28;20020;-69
2023/01/14 00:50:42;;;;;;;3.60;0.95;;;8.20;99.90;;;;;;10174950;28;20027;-67
2023/01/14 00:55:34;;;;;;;1.73;0.73;;;8.10;99.90;;;;;;10173685;28;20036;-67
2023/01/14 01:00:28;;;;;;;3.83;0.98;;;8.10;99.90;;;;;;10159168;28;20115;-66
2023/01/14 01:05:19;;;;;;;1.65;0.65;;;8.10;99.90;;;;;;10150101;28;20072;-67
2023/01/14 01:10:10;;;;;;;3.80;1.00;;;8.00;99.90;;;;;;10169113;28;20020;-67
2023/01/14 01:15:00;;;;;;;3.17;1.25;;;8.10;99.90;;;;;;10173099;28;20035;-67
2023/01/14 01:19:54;;;;;;;4.28;0.82;;;8.10;99.90;;;;;;10166988;28;20031;-66
2023/01/14 01:24:44;;;;;;;3.63;0.90;;;8.10;99.90;;;;;;10164576;28;20032;-67
2023/01/14 01:29:35;;;;;;;3.28;1.05;;;8.20;99.90;;;;;;10176391;28;20103;-66
2023/01/14 01:34:25;;;;;;;4.25;1.42;;;8.30;99.90;;;;;;10176266;28;20127;-68
2023/01/14 01:39:16;;;;;;;4.28;0.90;;;8.40;99.90;;;;;;10175959;28;20028;-66
2023/01/14 01:44:14;;;;;;;0.93;0.65;;;8.50;99.90;;;;;;10175917;28;20077;-66
2023/01/14 01:49:10;;;;;;;4.55;0.75;;;8.60;99.90;;;;;;10173972;28;20024;-67
2023/01/14 01:54:02;;;;;;;2.45;0.98;;;8.70;99.90;;;;;;10157557;28;20028;-67
2023/01/14 01:58:55;;;;;;;3.90;1.13;;;8.70;99.90;;;;;;10166279;28;20032;-66
2023/01/14 02:03:48;;;;;;;4.25;0.55;;;8.60;99.90;;;;;;10136449;28;20047;-66
2023/01/14 02:08:44;;;;;;;3.67;0.85;;;8.70;99.90;;;;;;10174216;28;20024;-66
2023/01/14 02:13:48;;;;;;;1.02;0.77;;;8.60;99.90;;;;;;10159762;28;20432;-66
2023/01/14 02:18:50;;;;;;;2.95;1.10;;;8.60;99.90;;;;;;10173546;28;20119;-66
2023/01/14 02:23:59;;;;;;;3.47;1.48;;;8.60;99.90;;;;;;10180962;28;20036;-66
2023/01/14 02:28:59;;;;;;;1.67;0.93;;;8.60;99.90;;;;;;10181865;28;20024;-67
2023/01/14 02:34:05;;;;;;;4.38;0.90;;;8.50;99.90;;;;;;10179953;28;20117;-66
2023/01/14 02:39:11;;;;;;;1.92;0.82;;;8.60;99.90;;;;;;10184515;28;20271;-67
2023/01/14 02:44:10;;;;;;;3.05;1.08;;;8.70;99.90;;;;;;10183537;28;20048;-67
2023/01/14 02:49:03;;;;;;;2.55;1.20;;;8.60;99.90;;;;;;10184101;28;20479;-66
2023/01/14 02:53:54;;;;;;;1.33;0.90;;;8.60;99.90;;;;;;10180320;28;20401;-67
2023/01/14 02:59:00;;;;;;;5.53;1.23;;;8.60;99.90;;;;;;10174716;28;20030;-67
2023/01/14 03:04:33;;;;;;;1.42;0.90;;;8.50;99.90;;;;;;10160826;28;20043;-66
2023/01/14 03:09:47;;;;;;;5.15;1.08;;;8.50;99.90;;;;;;10172669;28;20330;-67
2023/01/14 03:14:48;;;;;;;10.10;1.95;;;8.30;99.90;;;;;;10175110;28;20047;-66
2023/01/14 03:19:43;;;;;;;5.95;1.90;;;8.30;99.90;;;;;;10177557;28;20616;-65
2023/01/14 03:24:38;;;;;;;0.88;0.60;;;8.20;99.90;;;;;;10184464;28;20020;-68
2023/01/14 03:29:34;;;;;;;4.90;1.05;;;8.10;99.90;;;;;;10180823;28;20032;-67
2023/01/14 03:34:32;;;;;;;1.50;0.93;;;8.10;99.90;;;;;;10181987;28;20048;-67
2023/01/14 03:39:26;;;;;;;2.17;1.30;;;8.10;99.90;;;;;;10159182;28;20601;-68
2023/01/14 03:44:42;;;;;;;3.85;1.20;;;8.10;99.90;;;;;;10163089;28;20046;-67
2023/01/14 03:49:33;;;;;;;5.13;1.55;;;8.20;99.90;;;;;;10166499;28;20031;-67
2023/01/14 03:54:33;;;;;;;2.45;1.35;;;8.10;99.90;;;;;;10178855;28;20445;-67
2023/01/14 03:59:36;;;;;;;3.45;2.38;;;8.10;99.90;;;;;;10168854;28;20020;-66
2023/01/14 04:04:27;;;;;;;4.65;1.02;;;8.10;99.90;;;;;;10168455;28;20267;-65
2023/01/14 04:09:17;;;;;;;5.22;1.23;;;8.10;99.90;;;;;;10173628;28;20659;-65
2023/01/14 04:19:17;;;;;;;3.30;1.17;;;8.00;99.90;;;;;;10179601;28;20532;-66
2023/01/14 04:24:08;;;;;;;2.90;1.45;;;8.00;99.90;;;;;;10173235;28;20054;-66
2023/01/14 04:28:59;;;;;;;6.85;1.65;;;8.00;99.90;;;;;;10179172;28;20016;-66
2023/01/14 04:33:49;;;;;;;3.80;1.58;;;8.10;99.90;;;;;;10179030;28;20047;-66
2023/01/14 04:38:40;;;;;;;6.35;3.03;;;8.10;99.90;;;;;;10178127;28;20016;-66
2023/01/14 04:43:31;;;;;;;2.28;0.85;;;8.00;99.90;;;;;;10160297;28;20147;-66
2023/01/14 04:48:23;;;;;;;2.72;1.52;;;7.90;99.90;;;;;;10159148;28;20023;-66
2023/01/14 04:53:15;;;;;;;5.22;1.50;;;7.90;99.90;;;;;;10170533;28;20475;-67
2023/01/14 04:58:07;;;;;;;5.18;1.23;;;7.90;99.90;;;;;;10167544;28;20020;-65
2023/01/14 05:03:02;;;;;;;5.90;1.15;;;7.90;99.90;;;;;;10166710;28;20090;-65
2023/01/14 05:07:53;;;;;;;4.57;1.33;;;7.90;99.90;;;;;;10159113;28;20496;-66
2023/01/14 05:12:55;;;;;;;5.38;1.20;;;8.00;99.90;;;;;;10177748;28;20024;-66
2023/01/14 05:17:46;;;;;;;3.00;1.00;;;8.00;99.90;;;;;;10172461;28;20029;-65
2023/01/14 05:22:37;;;;;;;2.75;1.35;;;8.00;99.90;;;;;;10177399;28;20040;-66
2023/01/14 05:27:27;;;;;;;7.30;1.63;;;8.00;99.90;;;;;;10178372;28;20080;-65
2023/01/14 05:32:18;;;;;;;2.47;2.08;;;8.10;99.90;;;;;;10180286;28;20052;-70
2023/01/14 05:37:08;;;;;;;5.68;1.58;;;8.10;99.90;;;;;;10176930;28;20034;-68
2023/01/14 05:47:10;;;;;;;6.45;1.80;;;8.20;99.90;;;;;;10179512;28;20081;-68
2023/01/14 05:52:00;;;;;;;5.38;1.30;;;8.20;99.90;;;;;;10189928;28;20046;-67
2023/01/14 05:56:51;;;;;;;5.35;1.27;;;8.20;99.90;;;;;;10176885;28;20033;-68
2023/01/14 06:06:51;;;;;;;6.50;1.75;;;8.10;99.90;;;;;;10168438;28;20109;-67
2023/01/14 06:12:01;;;;;;;4.00;1.85;;;8.10;99.90;;;;;;10167158;28;20093;-67
2023/01/14 06:16:52;;;;;;;4.07;1.20;;;8.10;99.90;;;;;;10187854;28;20677;-66
2023/01/14 06:21:42;;;;;;;4.35;2.13;;;8.10;99.90;;;;;;10178147;28;20118;-66
2023/01/14 06:26:35;;;;;;;3.65;1.02;;;8.20;99.90;;;;;;10165446;28;20240;-67
2023/01/14 06:31:26;;;;;;;6.28;1.98;;;8.20;99.90;;;;;;10189111;28;20040;-66
2023/01/14 06:36:17;;;;;;;3.97;1.20;;;8.30;99.90;;;;;;10188794;28;20513;-66
2023/01/14 06:41:09;;;;;;;8.55;1.45;;;8.30;99.90;;;;;;10190306;28;20039;-67
2023/01/14 06:46:00;;;;;;;4.97;0.98;;;8.40;99.90;;;;;;10190273;28;20032;-67
2023/01/14 06:50:51;;;;;;;3.13;1.30;;;8.40;99.90;;;;;;10189819;28;20016;-66
2023/01/14 06:55:42;;;;;;;1.95;1.23;;;8.40;99.90;;;;;;10188354;28;20040;-67
2023/01/14 07:00:32;;;;;;;3.40;0.93;;;8.40;99.90;;;;;;10183632;28;20024;-66
2023/01/14 07:05:23;;;;;;;5.45;2.45;;;8.40;99.90;;;;;;10172175;28;20592;-66
2023/01/14 07:10:15;;;;;;;2.47;0.70;;;8.50;99.90;;;;;;10181289;28;20038;-66
2023/01/14 07:15:07;;;;;;;4.95;0.98;;;8.50;99.90;;;;;;10178028;28;20493;-66
2023/01/14 07:19:57;;;;;;;4.57;1.27;;;8.50;99.90;;;;;;10181923;28;20032;-65
2023/01/14 07:24:48;;;;;;;4.20;1.02;;;8.60;99.90;;;;;;10181290;28;20036;-65
2023/01/14 07:29:38;;;;;;;1.25;0.80;;;8.60;99.90;;;;;;10180718;28;20065;-66
2023/01/14 07:34:29;;;;;;;2.33;1.08;;;8.50;99.90;;;;;;10180930;28;20092;-66
2023/01/14 07:39:20;;;;;;;3.58;1.30;;;8.50;99.90;;;;;;10180448;28;20020;-66
2023/01/14 07:44:10;;;;;;;2.03;0.73;;;8.60;99.90;;;;;;10178467;28;20032;-65
2023/01/14 07:49:01;;;;;;;2.63;1.33;;;8.60;99.90;;;;;;10157937;28;20024;-66
2023/01/14 07:53:51;;;;;;;3.13;1.25;;;8.60;99.90;;;;;;10178145;28;20111;-66
2023/01/14 07:58:42;;;;;;;1.58;0.73;;;8.70;99.90;;;;;;10179400;28;20024;-65
2023/01/14 08:03:33;;;;;;;4.35;1.35;;;8.70;99.90;;;;;;10170227;28;20118;-66
2023/01/14 08:08:24;;;;;;;1.70;0.85;;;8.80;99.90;;;;;;10176652;28;20035;-67
2023/01/14 08:13:15;;;;;;;2.78;1.02;;;8.80;99.90;;;;;;10173581;28;20490;-65
2023/01/14 08:18:05;;;;;;;1.67;0.88;;;8.80;99.90;;;;;;10179228;28;20104;-67
2023/01/14 08:22:59;;;;;;;4.47;0.93;;;8.80;99.90;;;;;;10157423;28;20460;-66
2023/01/14 08:27:50;;;;;;;4.53;1.05;;;8.90;99.90;;;;;;10169315;28;20452;-67
2023/01/14 08:32:41;;;;;;;3.15;1.70;;;9.00;99.90;;;;;;10130315;28;20069;-65
2023/01/14 08:37:32;;;;;;;1.95;0.80;;;9.10;99.90;;;;;;10171804;28;20072;-67
2023/01/14 08:42:22;;;;;;;6.97;1.02;;;9.10;99.90;;;;;;10160524;28;20340;-66
2023/01/14 08:47:13;;;;;;;3.38;1.05;;;9.20;99.90;;;;;;10152210;28;20145;-66
2023/01/14 08:52:04;;;;;;;2.55;0.93;;;9.10;99.90;;;;;;10138312;28;20122;-66
2023/01/14 08:56:56;;;;;;;1.75;0.95;;;9.20;99.90;;;;;;10163181;28;20587;-67
2023/01/14 09:01:47;;;;;;;1.60;1.20;;;9.20;99.90;;;;;;10145048;28;20028;-66
2023/01/14 09:17:04;;;;;;;1.88;0.90;;;9.30;99.90;;;;;;10153766;28;20070;-65
2023/01/14 09:17:09;;;;;;;2.40;1.27;;;9.30;99.90;;;;;;10149622;28;20105;-66
2023/01/14 09:22:00;;;;;;;4.55;1.00;;;9.40;99.90;;;;;;10144160;28;20085;-66
2023/01/14 09:26:51;;;;;;;1.90;0.70;;;9.70;99.90;;;;;;10171850;28;20017;-68
2023/01/14 09:31:41;;;;;;;5.22;1.15;;;9.80;99.90;;;;;;10148434;28;20636;-67
2023/01/14 09:36:32;;;;;;;3.00;1.10;;;9.80;99.90;;;;;;10165047;28;20081;-66
2023/01/14 09:41:34;;;;;;;2.10;0.88;;;9.90;99.90;;;;;;10176556;28;20028;-67
2023/01/14 09:46:26;;;;;;;4.38;1.20;;;9.90;99.90;;;;;;10176594;28;20107;-65
2023/01/14 09:51:51;;;;;;;1.58;0.60;;;10.00;99.90;;;;;;10176138;28;20027;-69
2023/01/14 09:56:51;;;;;;;5.43;1.10;;;10.00;99.90;;;;;;10168517;28;20078;-65
2023/01/14 10:02:24;;;;;;;3.00;1.25;;;10.00;99.90;;;;;;10167679;28;20040;-66
2023/01/14 10:07:17;;;;;;;1.13;1.02;;;10.00;99.90;;;;;;10155453;28;20103;-66
2023/01/14 10:12:20;;;;;;;1.48;0.88;;;10.00;99.90;;;;;;10161675;28;20111;-67
2023/01/14 10:17:16;;;;;;;5.00;1.17;;;10.00;99.90;;;;;;10166194;28;20025;-67
2023/01/14 10:22:29;;;;;;;1.70;0.60;;;10.00;99.90;;;;;;10174986;28;20333;-68
2023/01/14 10:27:21;;;;;;;2.88;0.90;;;10.10;99.90;;;;;;10181846;28;20028;-67
2023/01/14 10:32:14;;;;;;;5.45;1.38;;;10.20;99.90;;;;;;10177226;28;20067;-67
2023/01/14 10:37:10;;;;;;;5.47;0.98;;;10.20;99.90;;;;;;10175799;28;20020;-68
2023/01/14 10:42:01;;;;;;;1.25;0.65;;;10.20;99.90;;;;;;10157786;28;20040;-68
2023/01/14 10:46:58;;;;;;;8.02;2.65;;;10.20;99.90;;;;;;10171037;28;20416;-67
2023/01/14 10:51:51;;;;;;;1.73;0.60;;;10.20;99.90;;;;;;10167873;28;20518;-68
2023/01/14 10:56:50;;;;;;;2.17;0.73;;;10.30;99.90;;;;;;10178786;28;20065;-69
2023/01/14 11:01:41;;;;;;;1.65;0.63;;;10.40;99.90;;;;;;10157057;28;20099;-66
2023/01/14 11:06:32;;;;;;;1.58;0.80;;;10.50;99.90;;;;;;10160728;28;20107;-68
2023/01/14 11:11:36;;;;;;;3.75;1.30;;;10.60;99.90;;;;;;10159236;28;20027;-69
2023/01/14 11:16:30;;;;;;;2.47;0.60;;;10.60;99.90;;;;;;10174305;28;20024;-69
2023/01/14 11:21:23;;;;;;;3.38;1.92;;;10.60;99.90;;;;;;10164959;28;20046;-68
2023/01/14 11:26:31;;;;;;;2.17;1.25;;;10.60;99.90;;;;;;10181475;28;20024;-69
2023/01/14 11:31:31;;;;;;;1.70;0.80;;;10.60;99.90;;;;;;10181308;28;20135;-67
2023/01/14 11:36:23;;;;;;;2.83;1.08;;;10.60;99.90;;;;;;10169686;28;20056;-69
2023/01/14 11:41:35;;;;;;;3.30;0.82;;;10.60;99.90;;;;;;10158708;28;20032;-67
2023/01/14 11:46:26;;;;;;;3.35;0.80;;;10.60;99.90;;;;;;10150606;28;20039;-68
2023/01/14 11:51:19;;;;;;;0.77;0.47;;;10.70;99.90;;;;;;10180885;28;20039;-66
2023/01/14 11:56:20;;;;;;;0.95;0.88;;;10.60;99.90;;;;;;10166199;28;20356;-67
2023/01/14 12:01:22;;;;;;;4.22;0.80;;;10.70;99.90;;;;;;10171238;28;20034;-67
2023/01/14 12:06:17;;;;;;;2.20;0.60;;;10.70;99.90;;;;;;10179401;28;20035;-66
2023/01/14 12:11:17;;;;;;;3.03;1.23;;;10.70;99.90;;;;;;10179633;28;20401;-68
2023/01/14 12:21:52;;;;;;;1.92;0.77;;;10.80;99.90;;;;;;10173820;28;20245;-61
2023/01/14 12:26:46;;;;;;;2.45;1.00;;;10.80;99.90;;;;;;10172076;28;20026;-63
2023/01/14 12:31:47;;;;;;;2.13;0.70;;;10.90;99.90;;;;;;10178295;28;20044;-62
2023/01/14 12:36:48;;;;;;;1.00;0.70;;;11.10;99.90;;;;;;10178412;28;20016;-61
2023/01/14 12:47:03;;;;;;;1.75;0.88;;;11.00;99.90;;;;;;10175327;28;20077;-62
2023/01/14 12:51:54;;;;;;;5.55;0.82;;;11.00;99.90;;;;;;10171050;28;20111;-62
2023/01/14 12:56:56;;;;;;;4.43;0.93;;;11.00;99.90;;;;;;10167327;28;20148;-63
2023/01/14 13:02:14;;;;;;;2.50;0.55;;;11.00;99.90;;;;;;10172385;28;20064;-62
2023/01/14 13:07:07;;;;;;;3.05;0.90;;;11.00;99.90;;;;;;10147911;28;20032;-64
2023/01/14 13:11:59;;;;;;;1.92;0.60;;;11.00;99.90;;;;;;10177726;28;20028;-61
2023/01/14 13:16:58;;;;;;;1.42;0.73;;;10.90;99.90;;;;;;10174110;28;20024;-64
2023/01/14 13:22:01;;;;;;;1.80;0.80;;;10.90;99.90;;;;;;10173661;28;20060;-63
2023/01/14 13:26:54;;;;;;;1.83;1.10;;;10.90;99.90;;;;;;10173042;28;20071;-63
2023/01/14 13:31:45;;;;;;;1.52;0.95;;;10.90;99.90;;;;;;10165723;28;20036;-63
2023/01/14 13:36:36;;;;;;;3.22;1.02;;;10.90;99.90;;;;;;10169228;28;20100;-62
2023/01/14 13:41:38;;;;;;;1.38;0.68;;;10.90;99.90;;;;;;10177784;28;20620;-61
2023/01/14 13:46:32;;;;;;;3.22;1.67;;;10.90;99.90;;;;;;10175644;28;20024;-62
2023/01/14 13:51:41;;;;;;;3.65;0.90;;;10.90;99.90;;;;;;10159044;28;20486;-63
2023/01/14 13:56:33;;;;;;;1.42;0.68;;;10.80;99.90;;;;;;10165914;28;20016;-63
2023/01/14 14:01:24;;;;;;;3.08;0.70;;;10.90;99.90;;;;;;10155154;28;20025;-64
2023/01/14 14:06:21;;;;;;;1.33;0.80;;;11.00;99.90;;;;;;10170045;28;20028;-66
2023/01/14 14:11:12;;;;;;;3.25;0.80;;;11.00;99.90;;;;;;10182051;28;20020;-64
2023/01/14 14:16:22;;;;;;;1.58;0.80;;;11.00;99.90;;;;;;10184258;28;20028;-63
2023/01/14 14:21:18;;;;;;;3.25;0.90;;;11.00;99.90;;;;;;10184504;28;20096;-63
2023/01/14 14:26:18;;;;;;;3.78;1.25;;;11.10;99.90;;;;;;10177191;28;20022;-63
2023/01/14 14:31:14;;;;;;;2.03;1.10;;;11.00;99.90;;;;;;10172433;28;20511;-63
2023/01/14 14:36:20;;;;;;;2.47;1.73;;;11.10;99.90;;;;;;10148094;28;20035;-63
2023/01/14 14:41:22;;;;;;;1.65;0.65;;;11.00;99.90;;;;;;10164842;28;20465;-62
2023/01/14 14:46:21;;;;;;;2.28;0.90;;;11.00;99.90;;;;;;10167014;28;20040;-62
2023/01/14 14:51:18;;;;;;;4.10;1.17;;;10.90;99.90;;;;;;10172801;28;20127;-63
2023/01/14 14:56:12;;;;;;;2.30;0.80;;;11.00;99.90;;;;;;10173777;28;20032;-61
2023/01/14 15:01:05;;;;;;;2.78;1.25;;;10.90;99.90;;;;;;10150509;28;20275;-62
2023/01/14 15:05:58;;;;;;;2.70;0.95;;;10.90;99.90;;;;;;10134688;28;20044;-62
2023/01/14 15:10:50;;;;;;;2.50;0.93;;;10.90;99.90;;;;;;10172756;28;20029;-63
2023/01/14 15:15:40;;;;;;;1.38;0.90;;;11.00;99.90;;;;;;10173735;28;20039;-60
2023/01/14 15:20:32;;;;;;;2.03;1.02;;;11.00;99.90;;;;;;10166606;28;20024;-62
2023/01/14 15:25:23;;;;;;;1.92;1.20;;;11.00;99.90;;;;;;10174918;28;20040;-62
2023/01/14 15:30:26;;;;;;;1.13;0.70;;;11.00;99.90;;;;;;10163122;28;20036;-63
2023/01/14 15:35:32;;;;;;;3.20;1.48;;;11.00;99.90;;;;;;10180961;28;20072;-62
2023/01/14 15:40:24;;;;;;;;;;;11.00;99.90;;;;;;10182246;28;20032;-61
2023/01/14 15:45:21;;;;;;;1.67;1.20;;;11.00;99.90;;;;;;10181009;28;19916;-61
2023/01/14 15:50:28;;;;;;;5.40;1.23;;;11.00;99.90;;;;;;10177248;28;20047;-61
2023/01/14 15:55:22;;;;;;;2.70;1.00;;;10.90;99.90;;;;;;10175875;28;20401;-61
2023/01/14 16:00:23;;;;;;;1.50;1.13;;;10.90;99.90;;;;;;10167158;28;20025;-63
2023/01/14 16:05:26;;;;;;;3.05;1.73;;;10.90;99.90;;;;;;10163673;28;20028;-61
2023/01/14 16:10:18;;;;;;;4.85;1.45;;;10.90;99.90;;;;;;10153983;28;20031;-62
2023/01/14 16:15:29;;;;;;;3.28;1.50;;;11.00;99.90;;;;;;10163499;28;20028;-62
2023/01/14 16:20:20;;;;;;;3.50;1.38;;;11.00;99.90;;;;;;10169291;28;20551;-61
2023/01/14 16:25:11;;;;;;;2.78;1.45;;;11.00;99.90;;;;;;10167239;28;20070;-62
2023/01/14 16:30:04;;;;;;;3.88;1.17;;;11.00;99.90;;;;;;10178810;28;20048;-62
2023/01/14 16:34:54;;;;;;;1.45;1.30;;;10.90;99.90;;;;;;10176579;28;20020;-62
2023/01/14 16:39:46;;;;;;;3.35;1.30;;;11.00;99.90;;;;;;10168012;28;20107;-62
2023/01/14 16:44:37;;;;;;;0.95;0.52;;;10.90;99.90;;;;;;10180433;28;20031;-61
2023/01/14 16:49:27;;;;;;;1.80;0.70;;;10.80;99.90;;;;;;10185543;28;20056;-62
2023/01/14 16:54:20;;;;;;;1.48;0.95;;;10.80;99.90;;;;;;10158896;28;20023;-62
2023/01/14 16:59:10;;;;;;;0.88;0.63;;;10.80;99.90;;;;;;10172917;28;20026;-63
2023/01/14 17:04:01;;;;;;;1.85;0.63;;;10.80;99.90;;;;;;10168748;28;20036;-62
2023/01/14 17:08:52;;;;;;;2.95;1.10;;;10.80;99.90;;;;;;10177841;28;20038;-63
2023/01/14 17:13:42;;;;;;;1.48;0.88;;;10.80;99.90;;;;;;10180946;28;20024;-62
2023/01/14 17:18:33;;;;;;;1.40;1.13;;;10.80;99.90;;;;;;10156386;28;20016;-62
2023/01/14 17:23:24;;;;;;;1.80;0.98;;;10.80;99.90;;;;;;10176501;28;20035;-62
2023/01/14 17:28:14;;;;;;;1.58;0.98;;;10.80;99.90;;;;;;10180654;28;20024;-62
2023/01/14 17:33:05;;;;;;;2.35;1.23;;;10.80;99.90;;;;;;10170126;28;20055;-61
2023/01/14 17:37:58;;;;;;;1.55;0.88;;;10.80;99.90;;;;;;10165759;28;20232;-62
2023/01/14 17:42:54;;;;;;;0.93;0.80;;;10.80;99.90;;;;;;10167464;28;20039;-62
2023/01/14 17:47:45;;;;;;;1.42;0.80;;;10.80;99.90;;;;;;10176219;28;20055;-61
2023/01/14 17:52:37;;;;;;;1.35;0.75;;;10.80;99.90;;;;;;10172614;28;20642;-63
2023/01/14 17:57:28;;;;;;;1.88;1.13;;;10.90;99.90;;;;;;10155790;28;20494;-64
2023/01/14 18:02:21;;;;;;;2.65;0.90;;;10.90;99.90;;;;;;10167664;28;20040;-63
2023/01/14 18:07:13;;;;;;;3.40;1.58;;;10.90;99.90;;;;;;10163535;28;20028;-62
2023/01/14 18:12:04;;;;;;;3.97;0.85;;;10.90;99.90;;;;;;10162173;28;20032;-63
2023/01/14 18:16:55;;;;;;;2.55;1.60;;;10.90;99.90;;;;;;10172268;28;20118;-63
2023/01/14 18:21:45;;;;;;;1.73;0.98;;;10.90;99.90;;;;;;10172079;28;20114;-64
2023/01/14 18:26:37;;;;;;;2.10;0.82;;;11.00;99.90;;;;;;10169648;28;20407;-64
2023/01/14 18:31:30;;;;;;;3.45;1.00;;;11.00;99.90;;;;;;10164904;28;20048;-63
2023/01/14 18:36:22;;;;;;;1.20;0.88;;;11.00;99.90;;;;;;10174705;28;20051;-63
2023/01/14 18:41:15;;;;;;;2.22;0.82;;;11.00;99.90;;;;;;10178010;28;20032;-64
2023/01/14 18:46:21;;;;;;;0.70;0.70;;;11.10;99.90;;;;;;10175082;28;20575;-63
2023/01/14 18:51:14;;;;;;;3.53;1.05;;;11.10;99.90;;;;;;10157737;28;20020;-63
2023/01/14 18:56:10;;;;;;;0.77;0.60;;;11.20;99.90;;;;;;10178897;28;20398;-63
2023/01/14 19:01:08;;;;;;;1.70;1.05;;;11.20;99.90;;;;;;10182707;28;20031;-63
2023/01/14 19:06:00;;;;;;;1.58;1.08;;;11.20;99.90;;;;;;10174788;28;20059;-63
2023/01/14 19:10:58;;;;;;;2.05;0.77;;;11.20;99.90;;;;;;10180887;28;20360;-63
2023/01/14 19:15:49;;;;;;;1.60;0.95;;;11.20;99.90;;;;;;10160618;28;20182;-63
2023/01/14 19:20:40;;;;;;;2.08;0.77;;;11.30;99.90;;;;;;10177466;28;20111;-65
2023/01/14 19:25:31;;;;;;;2.88;1.40;;;11.30;99.90;;;;;;10179369;28;20027;-64
2023/01/14 19:30:21;;;;;;;3.17;0.93;;;11.30;99.90;;;;;;10181406;28;20561;-66
2023/01/14 19:35:12;;;;;;;1.13;0.60;;;11.40;99.90;;;;;;10176060;28;20024;-64
2023/01/14 19:40:03;;;;;;;1.10;0.85;;;11.50;99.90;;;;;;10181311;28;20035;-62
2023/01/14 19:44:54;;;;;;;0.68;0.65;;;11.50;99.90;;;;;;10180556;28;20042;-64
2023/01/14 19:49:44;;;;;;;2.70;0.80;;;11.50;99.90;;;;;;10180732;28;20024;-63
2023/01/14 19:54:35;;;;;;;1.10;0.60;;;11.60;99.90;;;;;;10159109;28;20028;-63
2023/01/14 19:59:26;;;;;;;1.30;0.60;;;11.60;99.90;;;;;;10175106;28;20501;-64
2023/01/14 20:04:17;;;;;;;1.90;1.10;;;11.60;99.90;;;;;;10175375;28;20102;-65
2023/01/14 20:09:13;;;;;;;1.73;1.48;;;11.60;99.90;;;;;;10182884;28;20105;-63
2023/01/14 20:14:03;;;;;;;1.42;0.60;;;11.70;99.90;;;;;;10181163;28;20024;-61
2023/01/14 20:18:54;;;;;;;2.33;1.45;;;11.70;99.90;;;;;;10176456;28;20040;-63
2023/01/14 20:23:45;;;;;;;0.88;0.70;;;11.70;99.90;;;;;;10179390;28;20032;-63
2023/01/14 20:28:36;;;;;;;0.80;0.50;;;11.70;99.90;;;;;;10178889;28;20028;-62
2023/01/14 20:33:27;;;;;;;1.85;0.60;;;11.70;99.90;;;;;;10175429;28;20087;-64
2023/01/14 20:38:17;;;;;;;1.25;0.60;;;11.60;99.90;;;;;;10151528;28;20024;-64
2023/01/14 20:43:08;;;;;;;0.55;0.40;;;11.60;99.90;;;;;;10160337;28;20413;-64
2023/01/14 20:53:09;;;;;;;1.17;0.60;;;11.60;99.90;;;;;;10166737;28;20084;-64
2023/01/14 20:57:59;;;;;;;1.15;0.57;;;11.60;99.90;;;;;;10178276;28;20077;-62
2023/01/14 21:02:50;;;;;;;1.20;0.63;;;11.50;99.90;;;;;;10178079;28;20371;-66
2023/01/14 21:07:41;;;;;;;0.75;0.20;;;11.40;99.90;;;;;;10170682;28;20028;-64
2023/01/14 21:12:31;;;;;;;2.13;0.70;;;11.40;99.90;;;;;;10169665;28;20278;-63
2023/01/14 21:27:41;;;;;;;2.15;0.52;;;11.40;99.90;;;;;;10163867;28;20043;-63
2023/01/14 21:32:33;;;;;;;0.70;0.50;;;11.50;99.90;;;;;;10177601;28;20067;-66
2023/01/14 21:37:23;;;;;;;0.45;0.38;;;11.40;99.90;;;;;;10177292;28;20036;-67
2023/01/14 21:47:23;;;;;;;17.00;2.03;;;11.50;99.90;;;;;;10176149;28;20114;-64
2023/01/14 21:52:14;;;;;;;1.02;0.73;;;11.50;99.90;;;;;;10168067;28;20134;-66
2023/01/14 21:57:04;;;;;;;7.10;3.05;;;11.50;99.90;;;;;;10174704;28;20032;-67
2023/01/14 22:01:55;;;;;;;2.33;0.80;;;11.50;99.90;;;;;;10170002;28;20528;-66
2023/01/14 22:06:50;;;;;;;1.42;0.55;;;11.50;99.90;;;;;;10176106;28;20024;-64
2023/01/14 22:11:40;;;;;;;0.63;0.40;;;11.50;99.90;;;;;;10181001;28;20017;-67
2023/01/14 22:16:31;;;;;;;1.65;0.93;;;11.50;99.90;;;;;;10177404;28;20020;-70
2023/01/14 22:21:22;;;;;;;0.88;0.88;;;11.50;99.90;;;;;;10177326;28;20478;-66
2023/01/14 22:26:12;;;;;;;0.60;0.40;;;11.50;99.90;;;;;;10182157;28;20034;-66
2023/01/14 22:31:08;;;;;;;1.23;0.45;;;11.50;99.90;;;;;;10180125;28;20510;-68
2023/01/14 22:35:59;;;;;;;1.08;0.45;;;11.50;99.90;;;;;;10152059;28;20035;-68
2023/01/14 22:40:49;;;;;;;0.88;0.60;;;11.50;99.90;;;;;;10183709;28;20028;-68
2023/01/14 22:45:43;;;;;;;0.88;0.60;;;11.50;99.90;;;;;;10183229;28;20032;-68
2023/01/14 22:50:35;;;;;;;0.65;0.22;;;11.50;99.90;;;;;;10166419;28;20070;-69
2023/01/14 22:55:26;;;;;;;0.50;0.30;;;11.50;99.90;;;;;;10175432;28;20059;-68
2023/01/14 23:00:20;;;;;;;0.85;0.57;;;11.60;99.90;;;;;;10188420;28;20024;-69
2023/01/14 23:05:11;;;;;;;0.50;0.50;;;11.60;99.90;;;;;;10164325;28;20182;-67
2023/01/14 23:10:04;;;;;;;0.50;0.32;;;11.70;99.90;;;;;;10173523;28;20319;-67
2023/01/14 23:14:55;;;;;;;1.30;0.55;;;11.70;99.90;;;;;;10178595;28;20482;-68
2023/01/14 23:19:46;;;;;;;0.63;0.50;;;11.70;99.90;;;;;;10177109;28;20012;-69
2023/01/14 23:24:42;;;;;;;0.70;0.40;;;11.80;99.90;;;;;;10158611;28;20209;-68
2023/01/14 23:29:33;;;;;;;;;;;11.80;99.90;;;;;;10184614;28;20066;-69
2023/01/14 23:34:23;;;;;;;1.08;0.50;;;11.80;99.90;;;;;;10171672;28;19916;-68
2023/01/14 23:39:17;;;;;;;0.60;0.57;;;11.80;99.90;;;;;;10182247;28;20028;-71
2023/01/14 23:44:13;;;;;;;0.70;0.30;;;11.80;99.90;;;;;;10153151;28;20232;-69
2023/01/14 23:49:03;;;;;;;;;;;11.80;99.90;;;;;;10182614;28;20510;-70
2023/01/14 23:53:54;;;;;;;1.20;0.52;;;11.80;99.90;;;;;;10169044;28;20010;-70
2023/01/14 23:58:45;;;;;;;1.02;0.40;;;11.90;99.90;;;;;;10161166;28;20036;-66
